Krain, Washington
Current Conditions -  °F | °C
As of 9:53 AM on Thursday 27 Nov 2014 (Local Time) from KRNT Reporting Station
Overcast Overcast  
Wind Chill: 59°   Ceiling: 3100
Heat Index: 59°   Visibility: 10mi
Dew Point: 50°   Wind: 9mph
Humidity: 72%   Direction: 190°S
Pressure: 29.85"   Gusts: NA
Location:  47.1782°N, 121.641°W
Report Text: KRNT 271753Z 19008KT 10SM OVC031 15/10 A2985 RMK AO2 SLP113 60001 T01500100 10156 20128 52001
Loading
Personal Weather Stations






























Interactive Weather Map New forecast layout! Learn more

10-Day Weather Forecast

Advertisements
Track Severe Weather on mobile